Aiea, Hawaii
Current Conditions -  °F | °C
As of 1:53 PM on Friday 24 Oct 2014 (Local Time) from PHNL Reporting Station
Scattered Clouds Scattered Clouds  
Wind Chill: 87°   Ceiling: Unl
Heat Index: 91°   Visibility: 10mi
Dew Point: 69°   Wind: 14mph
Humidity: 55%   Direction: 50°NE
Pressure: 29.98"   Gusts: NA
Location:  21.38°N, 157.93°W
Report Text: PHNL 242353Z 05012KT 10SM FEW027 SCT039 SCT050 SCT180 31/21 A2998 RMK AO2 SLP150 VCSH NE-E T03060206 10311 20267 56020
Loading
Personal Weather Stations






























Interactive Weather Map New forecast layout! Learn more

10-Day Weather Forecast

Advertisements
Track Severe Weather on mobile